sensor_id;sensor_type;location;lat;lon;timestamp;temperature;humidity
41694;DHT22;27377;50.666;9.150;2022-07-01T00:02:40;19.10;99.90
41694;DHT22;27377;50.666;9.150;2022-07-01T00:05:25;19.10;99.90
41694;DHT22;27377;50.666;9.150;2022-07-01T00:08:09;19.10;99.90
41694;DHT22;27377;50.666;9.150;2022-07-01T00:10:53;19.00;99.90
41694;DHT22;27377;50.666;9.150;2022-07-01T00:13:37;19.00;99.90
41694;DHT22;27377;50.666;9.150;2022-07-01T00:16:21;18.90;99.90
41694;DHT22;27377;50.666;9.150;2022-07-01T00:19:06;19.00;99.90
41694;DHT22;27377;50.666;9.150;2022-07-01T00:21:51;18.90;99.90
41694;DHT22;27377;50.666;9.150;2022-07-01T00:24:35;18.90;99.90
41694;DHT22;27377;50.666;9.150;2022-07-01T00:27:19;18.90;99.90
41694;DHT22;27377;50.666;9.150;2022-07-01T00:30:08;18.90;99.90
41694;DHT22;27377;50.666;9.150;2022-07-01T00:32:52;18.90;99.90
41694;DHT22;27377;50.666;9.150;2022-07-01T00:35:38;18.80;99.90
41694;DHT22;27377;50.666;9.150;2022-07-01T00:38:22;18.80;99.90
41694;DHT22;27377;50.666;9.150;2022-07-01T00:41:06;18.80;99.90
41694;DHT22;27377;50.666;9.150;2022-07-01T00:43:50;18.70;99.90
41694;DHT22;27377;50.666;9.150;2022-07-01T00:46:34;18.80;99.90
41694;DHT22;27377;50.666;9.150;2022-07-01T00:49:18;18.80;99.90
41694;DHT22;27377;50.666;9.150;2022-07-01T00:52:04;18.70;99.90
41694;DHT22;27377;50.666;9.150;2022-07-01T00:54:49;18.70;99.90
41694;DHT22;27377;50.666;9.150;2022-07-01T00:57:35;18.70;99.90
41694;DHT22;27377;50.666;9.150;2022-07-01T01:00:20;18.70;99.90
41694;DHT22;27377;50.666;9.150;2022-07-01T01:03:09;18.70;99.90
41694;DHT22;27377;50.666;9.150;2022-07-01T01:05:55;18.60;99.90
41694;DHT22;27377;50.666;9.150;2022-07-01T01:08:41;18.60;99.90
41694;DHT22;27377;50.666;9.150;2022-07-01T01:11:26;18.60;99.90
41694;DHT22;27377;50.666;9.150;2022-07-01T01:14:10;18.60;99.90
41694;DHT22;27377;50.666;9.150;2022-07-01T01:16:55;18.50;99.90
41694;DHT22;27377;50.666;9.150;2022-07-01T01:19:40;18.50;99.90
41694;DHT22;27377;50.666;9.150;2022-07-01T01:22:25;18.50;99.90
41694;DHT22;27377;50.666;9.150;2022-07-01T01:25:09;18.60;99.90
41694;DHT22;27377;50.666;9.150;2022-07-01T01:27:54;18.60;99.90
41694;DHT22;27377;50.666;9.150;2022-07-01T01:30:39;18.60;99.90
41694;DHT22;27377;50.666;9.150;2022-07-01T01:33:23;18.50;99.90
41694;DHT22;27377;50.666;9.150;2022-07-01T01:36:08;18.50;99.90
41694;DHT22;27377;50.666;9.150;2022-07-01T01:38:52;18.50;99.90
41694;DHT22;27377;50.666;9.150;2022-07-01T01:45:18;18.50;99.90
41694;DHT22;27377;50.666;9.150;2022-07-01T01:48:02;18.50;99.90
41694;DHT22;27377;50.666;9.150;2022-07-01T01:50:46;18.50;99.90
41694;DHT22;27377;50.666;9.150;2022-07-01T01:53:31;18.50;99.90
41694;DHT22;27377;50.666;9.150;2022-07-01T01:56:15;18.40;99.90
41694;DHT22;27377;50.666;9.150;2022-07-01T01:58:59;18.40;99.90
41694;DHT22;27377;50.666;9.150;2022-07-01T02:01:43;18.50;99.90
41694;DHT22;27377;50.666;9.150;2022-07-01T02:04:27;18.40;99.90
41694;DHT22;27377;50.666;9.150;2022-07-01T02:07:11;18.40;99.90
41694;DHT22;27377;50.666;9.150;2022-07-01T02:09:55;18.40;99.90
41694;DHT22;27377;50.666;9.150;2022-07-01T02:12:39;18.30;99.90
41694;DHT22;27377;50.666;9.150;2022-07-01T02:15:23;18.30;99.90
41694;DHT22;27377;50.666;9.150;2022-07-01T02:18:07;18.30;99.90
41694;DHT22;27377;50.666;9.150;2022-07-01T02:20:51;18.30;99.90
41694;DHT22;27377;50.666;9.150;2022-07-01T02:23:36;18.20;99.90
41694;DHT22;27377;50.666;9.150;2022-07-01T02:26:20;18.20;99.90
41694;DHT22;27377;50.666;9.150;2022-07-01T02:29:04;18.20;99.90
41694;DHT22;27377;50.666;9.150;2022-07-01T02:31:49;18.10;99.90
41694;DHT22;27377;50.666;9.150;2022-07-01T02:34:33;18.10;99.90
41694;DHT22;27377;50.666;9.150;2022-07-01T02:37:17;18.10;99.90
41694;DHT22;27377;50.666;9.150;2022-07-01T02:40:02;18.10;99.90
41694;DHT22;27377;50.666;9.150;2022-07-01T02:42:46;18.00;99.90
41694;DHT22;27377;50.666;9.150;2022-07-01T02:45:30;18.00;99.90
41694;DHT22;27377;50.666;9.150;2022-07-01T02:48:14;17.90;99.90
41694;DHT22;27377;50.666;9.150;2022-07-01T02:50:58;17.90;99.90
41694;DHT22;27377;50.666;9.150;2022-07-01T02:53:43;17.80;99.90
41694;DHT22;27377;50.666;9.150;2022-07-01T02:56:27;17.80;99.90
41694;DHT22;27377;50.666;9.150;2022-07-01T02:59:11;17.70;99.90
41694;DHT22;27377;50.666;9.150;2022-07-01T03:01:55;17.60;99.90
41694;DHT22;27377;50.666;9.150;2022-07-01T03:04:39;17.60;99.90
41694;DHT22;27377;50.666;9.150;2022-07-01T03:07:23;17.50;99.90
41694;DHT22;27377;50.666;9.150;2022-07-01T03:10:08;17.40;99.90
41694;DHT22;27377;50.666;9.150;2022-07-01T03:12:53;17.40;99.90
41694;DHT22;27377;50.666;9.150;2022-07-01T03:15:37;17.30;99.90
41694;DHT22;27377;50.666;9.150;2022-07-01T03:18:21;17.30;99.90
41694;DHT22;27377;50.666;9.150;2022-07-01T03:21:05;17.20;99.90
41694;DHT22;27377;50.666;9.150;2022-07-01T03:23:49;17.20;99.90
41694;DHT22;27377;50.666;9.150;2022-07-01T03:26:33;17.20;99.90
41694;DHT22;27377;50.666;9.150;2022-07-01T03:29:17;17.20;99.90
41694;DHT22;27377;50.666;9.150;2022-07-01T03:32:01;17.20;99.90
41694;DHT22;27377;50.666;9.150;2022-07-01T03:34:48;17.10;99.90
41694;DHT22;27377;50.666;9.150;2022-07-01T03:37:32;17.00;99.90
41694;DHT22;27377;50.666;9.150;2022-07-01T03:40:16;17.10;99.90
41694;DHT22;27377;50.666;9.150;2022-07-01T03:43:00;17.10;99.90
41694;DHT22;27377;50.666;9.150;2022-07-01T03:45:44;17.10;99.90
41694;DHT22;27377;50.666;9.150;2022-07-01T03:48:28;17.00;99.90
41694;DHT22;27377;50.666;9.150;2022-07-01T03:51:12;17.00;99.90
41694;DHT22;27377;50.666;9.150;2022-07-01T03:53:56;17.00;99.90
41694;DHT22;27377;50.666;9.150;2022-07-01T03:57:04;17.00;99.90
41694;DHT22;27377;50.666;9.150;2022-07-01T03:59:48;16.90;99.90
41694;DHT22;27377;50.666;9.150;2022-07-01T04:02:32;16.90;99.90
41694;DHT22;27377;50.666;9.150;2022-07-01T04:05:16;16.90;99.90
41694;DHT22;27377;50.666;9.150;2022-07-01T04:08:02;16.90;99.90
41694;DHT22;27377;50.666;9.150;2022-07-01T04:10:48;16.90;99.90
41694;DHT22;27377;50.666;9.150;2022-07-01T04:13:34;16.90;99.90
41694;DHT22;27377;50.666;9.150;2022-07-01T04:16:19;16.80;99.90
41694;DHT22;27377;50.666;9.150;2022-07-01T04:19:04;16.80;99.90
41694;DHT22;27377;50.666;9.150;2022-07-01T04:21:48;16.80;99.90
41694;DHT22;27377;50.666;9.150;2022-07-01T04:24:51;16.80;99.90
41694;DHT22;27377;50.666;9.150;2022-07-01T04:27:35;16.70;99.90
41694;DHT22;27377;50.666;9.150;2022-07-01T04:30:19;16.60;99.90
41694;DHT22;27377;50.666;9.150;2022-07-01T04:33:03;16.60;99.90
41694;DHT22;27377;50.666;9.150;2022-07-01T04:35:47;16.60;99.90
41694;DHT22;27377;50.666;9.150;2022-07-01T04:38:32;16.50;99.90
41694;DHT22;27377;50.666;9.150;2022-07-01T04:41:16;16.50;99.90
41694;DHT22;27377;50.666;9.150;2022-07-01T04:44:19;16.50;99.90
41694;DHT22;27377;50.666;9.150;2022-07-01T04:47:04;16.60;99.90
41694;DHT22;27377;50.666;9.150;2022-07-01T04:49:48;16.50;99.90
41694;DHT22;27377;50.666;9.150;2022-07-01T04:52:32;16.50;99.90
41694;DHT22;27377;50.666;9.150;2022-07-01T04:55:16;16.50;99.90
41694;DHT22;27377;50.666;9.150;2022-07-01T04:58:00;16.60;99.90
41694;DHT22;27377;50.666;9.150;2022-07-01T05:00:45;16.60;99.90
41694;DHT22;27377;50.666;9.150;2022-07-01T05:03:29;16.60;99.90
41694;DHT22;27377;50.666;9.150;2022-07-01T05:06:13;16.60;99.90
41694;DHT22;27377;50.666;9.150;2022-07-01T05:08:57;16.60;99.90
41694;DHT22;27377;50.666;9.150;2022-07-01T05:11:41;16.60;99.90
41694;DHT22;27377;50.666;9.150;2022-07-01T05:14:25;16.60;99.90
41694;DHT22;27377;50.666;9.150;2022-07-01T05:17:09;16.50;99.90
41694;DHT22;27377;50.666;9.150;2022-07-01T05:19:53;16.60;99.90
41694;DHT22;27377;50.666;9.150;2022-07-01T05:22:56;16.60;99.90
41694;DHT22;27377;50.666;9.150;2022-07-01T05:25:40;16.60;99.90
41694;DHT22;27377;50.666;9.150;2022-07-01T05:28:24;16.60;99.90
41694;DHT22;27377;50.666;9.150;2022-07-01T05:31:08;16.60;99.90
41694;DHT22;27377;50.666;9.150;2022-07-01T05:33:52;16.60;99.90
41694;DHT22;27377;50.666;9.150;2022-07-01T05:36:36;16.60;99.90
41694;DHT22;27377;50.666;9.150;2022-07-01T05:39:20;16.60;99.90
41694;DHT22;27377;50.666;9.150;2022-07-01T05:42:05;16.60;99.90
41694;DHT22;27377;50.666;9.150;2022-07-01T05:44:48;16.60;99.90
41694;DHT22;27377;50.666;9.150;2022-07-01T05:47:32;16.70;99.90
41694;DHT22;27377;50.666;9.150;2022-07-01T05:50:16;16.70;99.90
41694;DHT22;27377;50.666;9.150;2022-07-01T05:53:01;16.70;99.90
41694;DHT22;27377;50.666;9.150;2022-07-01T05:55:45;16.80;99.90
41694;DHT22;27377;50.666;9.150;2022-07-01T05:58:29;16.80;99.90
41694;DHT22;27377;50.666;9.150;2022-07-01T06:01:14;16.80;99.90
41694;DHT22;27377;50.666;9.150;2022-07-01T06:03:58;16.80;99.90
41694;DHT22;27377;50.666;9.150;2022-07-01T06:06:42;16.80;99.90
41694;DHT22;27377;50.666;9.150;2022-07-01T06:09:26;16.80;99.90
41694;DHT22;27377;50.666;9.150;2022-07-01T06:12:10;16.80;99.90
41694;DHT22;27377;50.666;9.150;2022-07-01T06:14:54;16.80;99.90
41694;DHT22;27377;50.666;9.150;2022-07-01T06:17:39;16.70;99.90
41694;DHT22;27377;50.666;9.150;2022-07-01T06:20:24;16.80;99.90
41694;DHT22;27377;50.666;9.150;2022-07-01T06:23:08;16.80;99.90
41694;DHT22;27377;50.666;9.150;2022-07-01T06:25:52;16.80;99.90
41694;DHT22;27377;50.666;9.150;2022-07-01T06:28:36;16.80;99.90
41694;DHT22;27377;50.666;9.150;2022-07-01T06:31:20;16.70;99.90
41694;DHT22;27377;50.666;9.150;2022-07-01T06:34:04;16.80;99.90
41694;DHT22;27377;50.666;9.150;2022-07-01T06:36:48;16.80;99.90
41694;DHT22;27377;50.666;9.150;2022-07-01T06:39:32;16.90;99.90
41694;DHT22;27377;50.666;9.150;2022-07-01T06:42:16;16.80;99.90
41694;DHT22;27377;50.666;9.150;2022-07-01T06:45:01;16.80;99.90
41694;DHT22;27377;50.666;9.150;2022-07-01T06:47:45;16.80;99.90
41694;DHT22;27377;50.666;9.150;2022-07-01T06:50:29;16.80;99.90
41694;DHT22;27377;50.666;9.150;2022-07-01T06:53:13;16.80;99.90
41694;DHT22;27377;50.666;9.150;2022-07-01T06:55:57;16.90;99.90
41694;DHT22;27377;50.666;9.150;2022-07-01T06:58:42;16.90;99.90
41694;DHT22;27377;50.666;9.150;2022-07-01T07:01:26;16.90;99.90
41694;DHT22;27377;50.666;9.150;2022-07-01T07:04:11;16.90;99.90
41694;DHT22;27377;50.666;9.150;2022-07-01T07:06:55;16.80;99.90
41694;DHT22;27377;50.666;9.150;2022-07-01T07:09:39;16.80;99.90
41694;DHT22;27377;50.666;9.150;2022-07-01T07:12:23;16.70;99.90
41694;DHT22;27377;50.666;9.150;2022-07-01T07:15:08;16.70;99.90
41694;DHT22;27377;50.666;9.150;2022-07-01T07:17:52;16.70;99.90
41694;DHT22;27377;50.666;9.150;2022-07-01T07:20:38;16.80;99.90
41694;DHT22;27377;50.666;9.150;2022-07-01T07:23:22;16.70;99.90
41694;DHT22;27377;50.666;9.150;2022-07-01T07:26:06;16.70;99.90
41694;DHT22;27377;50.666;9.150;2022-07-01T07:28:50;16.70;99.90
41694;DHT22;27377;50.666;9.150;2022-07-01T07:31:35;16.60;99.90
41694;DHT22;27377;50.666;9.150;2022-07-01T07:34:19;16.60;99.90
41694;DHT22;27377;50.666;9.150;2022-07-01T07:37:03;16.60;99.90
41694;DHT22;27377;50.666;9.150;2022-07-01T07:39:48;16.70;99.90
41694;DHT22;27377;50.666;9.150;2022-07-01T07:42:32;16.80;99.90
41694;DHT22;27377;50.666;9.150;2022-07-01T07:45:16;16.80;99.90
41694;DHT22;27377;50.666;9.150;2022-07-01T07:48:01;16.80;99.90
41694;DHT22;27377;50.666;9.150;2022-07-01T07:50:46;16.90;99.90
41694;DHT22;27377;50.666;9.150;2022-07-01T07:53:31;16.90;99.90
41694;DHT22;27377;50.666;9.150;2022-07-01T07:56:15;17.00;99.90
41694;DHT22;27377;50.666;9.150;2022-07-01T07:58:59;16.90;99.90
41694;DHT22;27377;50.666;9.150;2022-07-01T08:01:43;16.90;99.90
41694;DHT22;27377;50.666;9.150;2022-07-01T08:04:28;16.90;99.90
41694;DHT22;27377;50.666;9.150;2022-07-01T08:07:12;16.90;99.90
41694;DHT22;27377;50.666;9.150;2022-07-01T08:09:56;16.90;99.90
41694;DHT22;27377;50.666;9.150;2022-07-01T08:12:40;16.90;99.90
41694;DHT22;27377;50.666;9.150;2022-07-01T08:15:25;16.90;99.90
41694;DHT22;27377;50.666;9.150;2022-07-01T08:18:09;16.90;99.90
41694;DHT22;27377;50.666;9.150;2022-07-01T08:20:53;16.90;99.90
41694;DHT22;27377;50.666;9.150;2022-07-01T08:23:37;16.90;99.90
41694;DHT22;27377;50.666;9.150;2022-07-01T08:26:21;16.90;99.90
41694;DHT22;27377;50.666;9.150;2022-07-01T08:29:05;16.90;99.90
41694;DHT22;27377;50.666;9.150;2022-07-01T08:31:49;16.90;99.90
41694;DHT22;27377;50.666;9.150;2022-07-01T08:34:34;16.90;99.90
41694;DHT22;27377;50.666;9.150;2022-07-01T08:37:19;17.00;99.90
41694;DHT22;27377;50.666;9.150;2022-07-01T08:40:03;16.90;99.90
41694;DHT22;27377;50.666;9.150;2022-07-01T08:42:48;16.90;99.90
41694;DHT22;27377;50.666;9.150;2022-07-01T08:45:34;16.90;99.90
41694;DHT22;27377;50.666;9.150;2022-07-01T08:48:20;16.90;99.90
41694;DHT22;27377;50.666;9.150;2022-07-01T08:51:04;16.90;99.90
41694;DHT22;27377;50.666;9.150;2022-07-01T08:53:49;16.90;99.90
41694;DHT22;27377;50.666;9.150;2022-07-01T08:56:34;16.80;99.90
41694;DHT22;27377;50.666;9.150;2022-07-01T08:59:29;16.80;99.90
41694;DHT22;27377;50.666;9.150;2022-07-01T09:02:13;16.80;99.90
41694;DHT22;27377;50.666;9.150;2022-07-01T09:05:06;16.80;99.90
41694;DHT22;27377;50.666;9.150;2022-07-01T09:08:05;16.70;99.90
41694;DHT22;27377;50.666;9.150;2022-07-01T09:10:49;16.70;99.90
41694;DHT22;27377;50.666;9.150;2022-07-01T09:13:33;16.70;99.90
41694;DHT22;27377;50.666;9.150;2022-07-01T09:16:17;16.60;99.90
41694;DHT22;27377;50.666;9.150;2022-07-01T09:19:03;16.60;99.90
41694;DHT22;27377;50.666;9.150;2022-07-01T09:21:55;16.60;99.90
41694;DHT22;27377;50.666;9.150;2022-07-01T09:24:41;16.50;99.90
41694;DHT22;27377;50.666;9.150;2022-07-01T09:27:26;16.50;99.90
41694;DHT22;27377;50.666;9.150;2022-07-01T09:30:10;16.50;99.90
41694;DHT22;27377;50.666;9.150;2022-07-01T09:33:19;16.50;99.90
41694;DHT22;27377;50.666;9.150;2022-07-01T09:36:04;16.50;99.90
41694;DHT22;27377;50.666;9.150;2022-07-01T09:38:48;16.50;99.90
41694;DHT22;27377;50.666;9.150;2022-07-01T09:41:37;16.50;99.90
41694;DHT22;27377;50.666;9.150;2022-07-01T09:44:21;16.50;99.90
41694;DHT22;27377;50.666;9.150;2022-07-01T09:47:07;16.50;99.90
41694;DHT22;27377;50.666;9.150;2022-07-01T09:49:51;16.50;99.90
41694;DHT22;27377;50.666;9.150;2022-07-01T09:52:37;16.50;99.90
41694;DHT22;27377;50.666;9.150;2022-07-01T09:55:23;16.50;99.90
41694;DHT22;27377;50.666;9.150;2022-07-01T09:58:07;16.60;99.90
41694;DHT22;27377;50.666;9.150;2022-07-01T10:00:55;16.60;99.90
41694;DHT22;27377;50.666;9.150;2022-07-01T10:03:40;16.70;99.90
41694;DHT22;27377;50.666;9.150;2022-07-01T10:06:54;16.70;99.90
41694;DHT22;27377;50.666;9.150;2022-07-01T10:12:59;16.70;99.90
41694;DHT22;27377;50.666;9.150;2022-07-01T10:15:46;16.70;99.90
41694;DHT22;27377;50.666;9.150;2022-07-01T10:18:32;16.70;99.90
41694;DHT22;27377;50.666;9.150;2022-07-01T10:21:27;16.70;99.90
41694;DHT22;27377;50.666;9.150;2022-07-01T10:24:17;16.80;99.90
41694;DHT22;27377;50.666;9.150;2022-07-01T10:27:20;16.80;99.90
41694;DHT22;27377;50.666;9.150;2022-07-01T10:30:14;16.80;99.90
41694;DHT22;27377;50.666;9.150;2022-07-01T10:32:59;16.90;99.90
41694;DHT22;27377;50.666;9.150;2022-07-01T10:35:47;16.90;99.90
41694;DHT22;27377;50.666;9.150;2022-07-01T10:38:31;16.90;99.90
41694;DHT22;27377;50.666;9.150;2022-07-01T10:41:25;16.90;99.90
41694;DHT22;27377;50.666;9.150;2022-07-01T10:44:12;16.90;99.90
41694;DHT22;27377;50.666;9.150;2022-07-01T10:47:03;16.90;99.90
41694;DHT22;27377;50.666;9.150;2022-07-01T10:49:53;16.90;99.90
41694;DHT22;27377;50.666;9.150;2022-07-01T10:52:38;16.90;99.90
41694;DHT22;27377;50.666;9.150;2022-07-01T10:55:51;16.80;99.90
41694;DHT22;27377;50.666;9.150;2022-07-01T10:58:39;16.80;99.90
41694;DHT22;27377;50.666;9.150;2022-07-01T11:01:24;16.90;99.90
41694;DHT22;27377;50.666;9.150;2022-07-01T11:04:08;16.80;99.90
41694;DHT22;27377;50.666;9.150;2022-07-01T11:06:53;16.80;99.90
41694;DHT22;27377;50.666;9.150;2022-07-01T11:09:37;16.80;99.90
41694;DHT22;27377;50.666;9.150;2022-07-01T11:12:22;16.90;99.90
41694;DHT22;27377;50.666;9.150;2022-07-01T11:15:10;16.80;99.90
41694;DHT22;27377;50.666;9.150;2022-07-01T11:17:56;16.90;99.90
41694;DHT22;27377;50.666;9.150;2022-07-01T11:20:40;16.90;99.90
41694;DHT22;27377;50.666;9.150;2022-07-01T11:23:24;17.00;99.90
41694;DHT22;27377;50.666;9.150;2022-07-01T11:26:20;17.10;99.90
41694;DHT22;27377;50.666;9.150;2022-07-01T11:29:10;17.10;99.90
41694;DHT22;27377;50.666;9.150;2022-07-01T11:31:54;17.10;99.90
41694;DHT22;27377;50.666;9.150;2022-07-01T11:34:38;17.20;99.90
41694;DHT22;27377;50.666;9.150;2022-07-01T11:37:26;17.10;99.90
41694;DHT22;27377;50.666;9.150;2022-07-01T11:40:30;17.10;99.90
41694;DHT22;27377;50.666;9.150;2022-07-01T11:43:22;17.10;99.90
41694;DHT22;27377;50.666;9.150;2022-07-01T11:46:08;17.10;99.90
41694;DHT22;27377;50.666;9.150;2022-07-01T11:48:53;17.20;99.90
41694;DHT22;27377;50.666;9.150;2022-07-01T11:51:40;17.20;99.90
41694;DHT22;27377;50.666;9.150;2022-07-01T11:54:25;17.20;99.90
41694;DHT22;27377;50.666;9.150;2022-07-01T11:57:30;17.20;99.90
41694;DHT22;27377;50.666;9.150;2022-07-01T12:00:15;17.30;99.90
41694;DHT22;27377;50.666;9.150;2022-07-01T12:03:00;17.30;99.90
41694;DHT22;27377;50.666;9.150;2022-07-01T12:05:44;17.40;99.90
41694;DHT22;27377;50.666;9.150;2022-07-01T12:08:28;17.40;99.90
41694;DHT22;27377;50.666;9.150;2022-07-01T12:11:12;17.50;99.90
41694;DHT22;27377;50.666;9.150;2022-07-01T12:13:57;17.50;99.90
41694;DHT22;27377;50.666;9.150;2022-07-01T12:16:45;17.50;99.90
41694;DHT22;27377;50.666;9.150;2022-07-01T12:19:37;17.50;99.90
41694;DHT22;27377;50.666;9.150;2022-07-01T12:22:25;17.50;99.90
41694;DHT22;27377;50.666;9.150;2022-07-01T12:25:12;17.40;99.90
41694;DHT22;27377;50.666;9.150;2022-07-01T12:27:57;17.50;99.90
41694;DHT22;27377;50.666;9.150;2022-07-01T12:30:42;17.50;99.90
41694;DHT22;27377;50.666;9.150;2022-07-01T12:33:37;17.60;99.90
41694;DHT22;27377;50.666;9.150;2022-07-01T12:36:22;17.70;99.90
41694;DHT22;27377;50.666;9.150;2022-07-01T12:39:06;17.80;99.90
41694;DHT22;27377;50.666;9.150;2022-07-01T12:41:50;17.80;99.90
41694;DHT22;27377;50.666;9.150;2022-07-01T12:44:44;17.80;99.90
41694;DHT22;27377;50.666;9.150;2022-07-01T12:47:30;17.90;99.90
41694;DHT22;27377;50.666;9.150;2022-07-01T12:50:16;17.90;99.90
41694;DHT22;27377;50.666;9.150;2022-07-01T12:55:49;18.00;99.90
41694;DHT22;27377;50.666;9.150;2022-07-01T12:58:33;18.00;99.90
41694;DHT22;27377;50.666;9.150;2022-07-01T13:01:18;18.00;99.90
41694;DHT22;27377;50.666;9.150;2022-07-01T13:04:03;18.10;99.90
41694;DHT22;27377;50.666;9.150;2022-07-01T13:06:48;18.10;99.90
41694;DHT22;27377;50.666;9.150;2022-07-01T13:09:32;18.10;99.90
41694;DHT22;27377;50.666;9.150;2022-07-01T13:12:16;18.20;99.90
41694;DHT22;27377;50.666;9.150;2022-07-01T13:15:01;18.20;99.90
41694;DHT22;27377;50.666;9.150;2022-07-01T13:17:47;18.30;99.90
41694;DHT22;27377;50.666;9.150;2022-07-01T13:20:32;18.40;99.90
41694;DHT22;27377;50.666;9.150;2022-07-01T13:23:25;18.40;99.90
41694;DHT22;27377;50.666;9.150;2022-07-01T13:26:10;18.30;99.90
41694;DHT22;27377;50.666;9.150;2022-07-01T13:28:54;18.30;99.90
41694;DHT22;27377;50.666;9.150;2022-07-01T13:31:39;18.30;99.90
41694;DHT22;27377;50.666;9.150;2022-07-01T13:34:23;18.30;99.90
41694;DHT22;27377;50.666;9.150;2022-07-01T13:37:11;18.30;99.90
41694;DHT22;27377;50.666;9.150;2022-07-01T13:39:56;18.30;99.90
41694;DHT22;27377;50.666;9.150;2022-07-01T13:42:40;18.30;99.90
41694;DHT22;27377;50.666;9.150;2022-07-01T13:45:25;18.30;99.90
41694;DHT22;27377;50.666;9.150;2022-07-01T13:48:09;18.30;99.90
41694;DHT22;27377;50.666;9.150;2022-07-01T13:50:53;18.20;99.90
41694;DHT22;27377;50.666;9.150;2022-07-01T13:53:37;18.20;99.90
41694;DHT22;27377;50.666;9.150;2022-07-01T13:56:21;18.20;99.90
41694;DHT22;27377;50.666;9.150;2022-07-01T13:59:06;18.20;99.90
41694;DHT22;27377;50.666;9.150;2022-07-01T14:01:50;18.20;99.90
41694;DHT22;27377;50.666;9.150;2022-07-01T14:04:34;18.20;99.90
41694;DHT22;27377;50.666;9.150;2022-07-01T14:07:18;18.10;99.90
41694;DHT22;27377;50.666;9.150;2022-07-01T14:10:04;18.10;99.90
41694;DHT22;27377;50.666;9.150;2022-07-01T14:12:48;18.10;99.90
41694;DHT22;27377;50.666;9.150;2022-07-01T14:15:32;18.10;99.90
41694;DHT22;27377;50.666;9.150;2022-07-01T14:18:17;18.20;99.90
41694;DHT22;27377;50.666;9.150;2022-07-01T14:21:03;18.20;99.90
41694;DHT22;27377;50.666;9.150;2022-07-01T14:23:48;18.20;99.90
41694;DHT22;27377;50.666;9.150;2022-07-01T14:26:32;18.20;99.90
41694;DHT22;27377;50.666;9.150;2022-07-01T14:29:16;18.30;99.90
41694;DHT22;27377;50.666;9.150;2022-07-01T14:32:00;18.40;99.90
41694;DHT22;27377;50.666;9.150;2022-07-01T14:34:44;18.40;99.90
41694;DHT22;27377;50.666;9.150;2022-07-01T14:37:29;18.50;99.90
41694;DHT22;27377;50.666;9.150;2022-07-01T14:40:13;18.60;99.90
41694;DHT22;27377;50.666;9.150;2022-07-01T14:42:57;18.60;99.90
41694;DHT22;27377;50.666;9.150;2022-07-01T14:45:41;18.60;99.90
41694;DHT22;27377;50.666;9.150;2022-07-01T14:48:25;18.70;99.90
41694;DHT22;27377;50.666;9.150;2022-07-01T14:51:10;18.80;99.90
41694;DHT22;27377;50.666;9.150;2022-07-01T14:53:54;18.80;99.90
41694;DHT22;27377;50.666;9.150;2022-07-01T14:56:38;18.70;99.90
41694;DHT22;27377;50.666;9.150;2022-07-01T14:59:22;18.80;99.90
41694;DHT22;27377;50.666;9.150;2022-07-01T15:02:07;18.70;99.90
41694;DHT22;27377;50.666;9.150;2022-07-01T15:04:51;18.80;99.90
41694;DHT22;27377;50.666;9.150;2022-07-01T15:07:35;18.70;99.90
41694;DHT22;27377;50.666;9.150;2022-07-01T15:10:19;18.70;99.90
41694;DHT22;27377;50.666;9.150;2022-07-01T15:13:03;18.70;99.90
41694;DHT22;27377;50.666;9.150;2022-07-01T15:15:47;18.60;99.90
41694;DHT22;27377;50.666;9.150;2022-07-01T15:18:31;18.60;99.90
41694;DHT22;27377;50.666;9.150;2022-07-01T15:21:16;18.60;99.90
41694;DHT22;27377;50.666;9.150;2022-07-01T15:24:00;18.60;99.90
41694;DHT22;27377;50.666;9.150;2022-07-01T15:26:44;18.60;99.90
41694;DHT22;27377;50.666;9.150;2022-07-01T15:29:29;18.60;99.90
41694;DHT22;27377;50.666;9.150;2022-07-01T15:32:13;18.60;99.90
41694;DHT22;27377;50.666;9.150;2022-07-01T15:34:57;18.60;99.90
41694;DHT22;27377;50.666;9.150;2022-07-01T15:37:42;18.60;99.90
41694;DHT22;27377;50.666;9.150;2022-07-01T15:40:26;18.60;99.90
41694;DHT22;27377;50.666;9.150;2022-07-01T15:43:12;18.60;99.90
41694;DHT22;27377;50.666;9.150;2022-07-01T15:45:57;18.60;99.90
41694;DHT22;27377;50.666;9.150;2022-07-01T15:48:41;18.60;99.90
41694;DHT22;27377;50.666;9.150;2022-07-01T15:51:25;18.70;99.90
41694;DHT22;27377;50.666;9.150;2022-07-01T15:54:10;18.60;99.90
41694;DHT22;27377;50.666;9.150;2022-07-01T15:56:55;18.70;99.90
41694;DHT22;27377;50.666;9.150;2022-07-01T15:59:39;18.80;99.90
41694;DHT22;27377;50.666;9.150;2022-07-01T16:02:23;18.90;99.90
41694;DHT22;27377;50.666;9.150;2022-07-01T16:05:07;19.00;99.90
41694;DHT22;27377;50.666;9.150;2022-07-01T16:07:58;19.00;99.90
41694;DHT22;27377;50.666;9.150;2022-07-01T16:10:47;19.00;99.90
41694;DHT22;27377;50.666;9.150;2022-07-01T16:13:38;19.00;99.60
41694;DHT22;27377;50.666;9.150;2022-07-01T16:16:26;19.10;99.80
41694;DHT22;27377;50.666;9.150;2022-07-01T16:19:13;19.10;99.80
41694;DHT22;27377;50.666;9.150;2022-07-01T16:22:02;19.20;99.90
41694;DHT22;27377;50.666;9.150;2022-07-01T16:24:48;19.20;99.90
41694;DHT22;27377;50.666;9.150;2022-07-01T16:27:35;19.30;99.90
41694;DHT22;27377;50.666;9.150;2022-07-01T16:30:20;19.30;99.90
41694;DHT22;27377;50.666;9.150;2022-07-01T16:33:06;19.40;99.90
41694;DHT22;27377;50.666;9.150;2022-07-01T16:35:54;19.40;99.90
41694;DHT22;27377;50.666;9.150;2022-07-01T16:38:55;19.50;99.60
41694;DHT22;27377;50.666;9.150;2022-07-01T16:42:00;19.50;99.90
41694;DHT22;27377;50.666;9.150;2022-07-01T16:44:51;19.60;99.80
41694;DHT22;27377;50.666;9.150;2022-07-01T16:47:40;19.60;99.60
41694;DHT22;27377;50.666;9.150;2022-07-01T16:50:24;19.60;99.60
41694;DHT22;27377;50.666;9.150;2022-07-01T16:53:12;19.60;99.50
41694;DHT22;27377;50.666;9.150;2022-07-01T16:55:57;19.70;99.50
41694;DHT22;27377;50.666;9.150;2022-07-01T16:58:42;19.80;99.40
41694;DHT22;27377;50.666;9.150;2022-07-01T17:01:30;19.80;99.00
41694;DHT22;27377;50.666;9.150;2022-07-01T17:04:14;19.80;98.60
41694;DHT22;27377;50.666;9.150;2022-07-01T17:07:00;19.70;98.80
41694;DHT22;27377;50.666;9.150;2022-07-01T17:09:46;19.60;98.70
41694;DHT22;27377;50.666;9.150;2022-07-01T17:12:31;19.50;98.70
41694;DHT22;27377;50.666;9.150;2022-07-01T17:15:16;19.50;98.90
41694;DHT22;27377;50.666;9.150;2022-07-01T17:18:01;19.50;98.80
41694;DHT22;27377;50.666;9.150;2022-07-01T17:20:45;19.50;99.30
41694;DHT22;27377;50.666;9.150;2022-07-01T17:23:35;19.60;99.20
41694;DHT22;27377;50.666;9.150;2022-07-01T17:26:22;19.70;99.30
41694;DHT22;27377;50.666;9.150;2022-07-01T17:29:09;19.80;99.20
41694;DHT22;27377;50.666;9.150;2022-07-01T17:32:05;19.90;99.10
41694;DHT22;27377;50.666;9.150;2022-07-01T17:34:49;19.90;98.70
41694;DHT22;27377;50.666;9.150;2022-07-01T17:37:36;19.90;98.70